createdAt,value
2023-05-13T00:04:50.053Z,9.20
2023-05-13T00:09:53.437Z,8.57
2023-05-13T00:14:56.881Z,8.55
2023-05-13T00:20:02.109Z,8.50
2023-05-13T00:25:08.432Z,9.15
2023-05-13T00:30:12.697Z,8.00
2023-05-13T00:35:17.664Z,8.95
2023-05-13T00:40:22.760Z,8.60
2023-05-13T00:45:26.562Z,9.07
2023-05-13T00:50:31.689Z,8.85
2023-05-13T00:55:35.194Z,8.95
2023-05-13T01:00:46.400Z,8.30
2023-05-13T01:06:03.988Z,9.27
2023-05-13T01:11:12.881Z,9.10
2023-05-13T01:16:21.362Z,10.35
2023-05-13T01:21:27.760Z,9.13
2023-05-13T01:26:31.520Z,8.82
2023-05-13T01:31:35.496Z,9.85
2023-05-13T01:36:41.323Z,9.20
2023-05-13T01:41:45.011Z,9.57
2023-05-13T01:46:50.619Z,8.60
2023-05-13T01:51:56.284Z,8.98
2023-05-13T01:57:00.201Z,8.65
2023-05-13T02:02:04.239Z,8.38
2023-05-13T02:07:09.178Z,9.15
2023-05-13T02:12:12.607Z,8.85
2023-05-13T02:17:16.049Z,9.25
2023-05-13T02:22:21.111Z,9.60
2023-05-13T02:27:24.740Z,9.15
2023-05-13T02:32:28.364Z,8.75
2023-05-13T02:37:33.369Z,8.20
2023-05-13T02:42:36.871Z,8.32
2023-05-13T02:47:40.680Z,7.85
2023-05-13T02:52:45.840Z,7.20
2023-05-13T02:57:49.284Z,7.85
2023-05-13T03:02:53.075Z,8.32
2023-05-13T03:07:58.526Z,7.45
2023-05-13T03:13:02.249Z,8.23
2023-05-13T03:18:05.743Z,8.15
2023-05-13T03:23:10.667Z,8.35
2023-05-13T03:28:14.109Z,8.23
2023-05-13T03:33:17.796Z,7.75
2023-05-13T03:38:22.521Z,7.88
2023-05-13T03:43:26.204Z,7.72
2023-05-13T03:48:29.797Z,7.88
2023-05-13T03:53:35.033Z,8.45
2023-05-13T03:58:38.813Z,7.60
2023-05-13T04:03:44.357Z,7.70
2023-05-13T04:08:52.392Z,7.75
2023-05-13T04:13:55.748Z,8.00
2023-05-13T04:18:59.119Z,7.93
2023-05-13T04:24:04.266Z,7.93
2023-05-13T04:29:07.575Z,6.78
2023-05-13T04:34:11.043Z,7.53
2023-05-13T04:39:16.080Z,6.68
2023-05-13T04:44:19.678Z,6.63
2023-05-13T04:49:23.115Z,6.95
2023-05-13T04:54:28.432Z,7.22
2023-05-13T04:59:31.780Z,6.35
2023-05-13T05:04:35.377Z,5.68
2023-05-13T05:09:40.376Z,6.15
2023-05-13T05:14:43.845Z,5.57
2023-05-13T05:19:47.214Z,6.40
2023-05-13T05:24:51.943Z,5.82
2023-05-13T05:29:55.396Z,6.35
2023-05-13T05:34:58.931Z,5.60
2023-05-13T05:40:04.055Z,5.60
2023-05-13T05:45:09.109Z,5.53
2023-05-13T05:50:12.708Z,5.47
2023-05-13T05:55:17.850Z,5.28
2023-05-13T06:00:22.181Z,5.28
2023-05-13T06:05:25.721Z,5.25
2023-05-13T06:10:30.866Z,5.45
2023-05-13T06:15:34.540Z,5.20
2023-05-13T06:20:38.265Z,4.50
2023-05-13T06:25:43.219Z,4.85
2023-05-13T06:30:46.946Z,4.35
2023-05-13T06:35:50.699Z,3.40
2023-05-13T06:40:55.748Z,3.60
2023-05-13T06:45:59.970Z,3.83
2023-05-13T06:51:05.283Z,3.30
2023-05-13T06:56:10.239Z,4.20
2023-05-13T07:01:13.758Z,4.00
2023-05-13T07:06:17.120Z,3.72
2023-05-13T07:11:22.928Z,3.50
2023-05-13T07:16:26.367Z,5.35
2023-05-13T07:21:31.038Z,3.85
2023-05-13T07:26:35.930Z,3.38
2023-05-13T07:31:39.396Z,3.60
2023-05-13T07:36:42.900Z,3.80
2023-05-13T07:41:47.884Z,3.67
2023-05-13T07:46:53.639Z,3.63
2023-05-13T07:51:57.517Z,4.13
2023-05-13T07:57:02.888Z,3.60
2023-05-13T08:02:07.056Z,4.07
2023-05-13T08:07:11.762Z,4.30
2023-05-13T08:12:17.277Z,4.60
2023-05-13T08:17:20.933Z,6.00
2023-05-13T08:22:24.382Z,3.50
2023-05-13T08:27:29.305Z,5.10
2023-05-13T08:32:32.901Z,3.50
2023-05-13T08:37:36.544Z,3.55
2023-05-13T08:42:42.676Z,3.60
2023-05-13T08:47:52.768Z,4.20
2023-05-13T08:52:57.099Z,4.05
2023-05-13T08:58:02.090Z,5.43
2023-05-13T09:03:05.900Z,3.47
2023-05-13T09:08:10.964Z,5.57
2023-05-13T09:13:18.510Z,4.03
2023-05-13T09:18:22.141Z,4.25
2023-05-13T09:23:25.702Z,3.65
2023-05-13T09:28:31.317Z,3.22
2023-05-13T09:33:36.554Z,3.10
2023-05-13T09:38:40.400Z,3.63
2023-05-13T09:43:45.446Z,3.58
2023-05-13T09:48:50.464Z,3.78
2023-05-13T09:53:53.941Z,3.30
2023-05-13T09:58:58.846Z,3.40
2023-05-13T10:04:02.399Z,3.30
2023-05-13T10:09:08.619Z,3.45
2023-05-13T10:14:13.634Z,3.20
2023-05-13T10:19:18.956Z,3.45
2023-05-13T10:24:24.188Z,3.38
2023-05-13T10:29:30.511Z,3.45
2023-05-13T10:34:35.040Z,3.33
2023-05-13T10:40:06.932Z,4.70
2023-05-13T10:45:12.147Z,3.20
2023-05-13T10:50:27.620Z,3.10
2023-05-13T10:55:31.684Z,6.70
2023-05-13T11:00:37.433Z,11.00
2023-05-13T11:05:42.704Z,3.78
2023-05-13T11:10:56.570Z,3.35
2023-05-13T11:16:01.878Z,3.63
2023-05-13T11:21:07.687Z,4.53
2023-05-13T11:26:12.801Z,3.30
2023-05-13T11:31:18.553Z,2.90
2023-05-13T11:36:22.541Z,3.30
2023-05-13T11:41:26.451Z,3.50
2023-05-13T11:46:31.293Z,3.38
2023-05-13T11:51:35.623Z,3.30
2023-05-13T11:56:39.108Z,3.80
2023-05-13T12:01:44.189Z,3.42
2023-05-13T12:06:47.765Z,3.33
2023-05-13T12:11:52.787Z,3.63
2023-05-13T12:16:58.043Z,4.22
2023-05-13T12:22:02.540Z,3.30
2023-05-13T12:27:11.499Z,3.75
2023-05-13T12:32:18.152Z,4.85
2023-05-13T12:37:26.870Z,3.25
2023-05-13T12:42:30.328Z,3.67
2023-05-13T12:47:52.754Z,3.55
2023-05-13T12:52:57.916Z,2.75
2023-05-13T12:58:03.125Z,2.95
2023-05-13T13:03:08.364Z,3.25
2023-05-13T13:08:12.038Z,3.45
2023-05-13T13:13:16.033Z,3.35
2023-05-13T13:18:21.405Z,3.30
2023-05-13T13:23:24.946Z,3.33
2023-05-13T13:28:28.930Z,3.58
2023-05-13T13:33:33.741Z,3.67
2023-05-13T13:38:37.438Z,3.40
2023-05-13T13:43:40.892Z,3.33
2023-05-13T13:48:45.675Z,7.68
2023-05-13T13:53:50.918Z,3.40
2023-05-13T13:58:54.378Z,5.65
2023-05-13T14:04:13.344Z,3.80
2023-05-13T14:09:17.497Z,2.92
2023-05-13T14:14:21.006Z,3.65
2023-05-13T14:19:26.246Z,2.92
2023-05-13T14:24:29.780Z,3.22
2023-05-13T14:29:33.554Z,3.00
2023-05-13T14:34:38.596Z,3.45
2023-05-13T14:39:42.055Z,3.08
2023-05-13T14:44:45.707Z,4.72
2023-05-13T14:49:50.521Z,4.55
2023-05-13T14:54:55.253Z,2.45
2023-05-13T15:00:00.044Z,3.35
2023-05-13T15:05:05.742Z,3.97
2023-05-13T15:10:10.093Z,3.22
2023-05-13T15:15:13.711Z,4.78
2023-05-13T15:20:18.685Z,3.45
2023-05-13T15:25:22.452Z,5.03
2023-05-13T15:30:26.122Z,5.38
2023-05-13T15:35:30.969Z,5.00
2023-05-13T15:40:34.714Z,8.02
2023-05-13T15:45:40.159Z,10.35
2023-05-13T15:50:45.215Z,7.80
2023-05-13T15:55:48.790Z,7.10
2023-05-13T16:00:52.738Z,8.35
2023-05-13T16:05:57.628Z,16.02
2023-05-13T16:11:01.308Z,14.93
2023-05-13T16:16:05.101Z,17.98
2023-05-13T16:21:10.160Z,22.63
2023-05-13T16:26:13.540Z,20.60
2023-05-13T16:31:17.217Z,20.05
2023-05-13T16:36:22.974Z,21.45
2023-05-13T16:41:26.870Z,16.10
2023-05-13T16:46:35.469Z,13.07
2023-05-13T16:51:40.411Z,16.88
2023-05-13T16:56:44.693Z,16.95
2023-05-13T17:01:48.278Z,20.13
2023-05-13T17:06:53.679Z,13.90
2023-05-13T17:11:57.211Z,16.42
2023-05-13T17:17:00.722Z,20.63
2023-05-13T17:22:05.868Z,20.13
2023-05-13T17:27:09.448Z,16.10
2023-05-13T17:32:12.879Z,13.85
2023-05-13T17:37:17.876Z,10.23
2023-05-13T17:42:21.895Z,19.58
2023-05-13T17:47:26.234Z,33.35
2023-05-13T17:52:31.237Z,24.30
2023-05-13T17:57:34.824Z,29.55
2023-05-13T18:02:40.310Z,60.65
2023-05-13T18:07:45.423Z,39.55
2023-05-13T18:12:49.088Z,54.00
2023-05-13T18:17:52.500Z,26.40
2023-05-13T18:22:57.418Z,18.10
2023-05-13T18:28:00.876Z,14.88
2023-05-13T18:33:04.532Z,9.95
2023-05-13T18:38:09.433Z,9.82
2023-05-13T18:43:13.720Z,10.80
2023-05-13T18:48:17.325Z,12.15
2023-05-13T18:53:22.276Z,15.10
2023-05-13T18:58:27.281Z,12.93
2023-05-13T19:03:31.175Z,13.90
2023-05-13T19:08:36.310Z,11.73
2023-05-13T19:18:49.508Z,11.30
2023-05-13T19:23:54.641Z,10.32
2023-05-13T19:28:58.272Z,8.10
2023-05-13T19:34:02.029Z,8.43
2023-05-13T19:39:07.106Z,8.68
2023-05-13T19:44:10.603Z,8.98
2023-05-13T19:49:14.127Z,10.07
2023-05-13T19:54:19.300Z,9.65
2023-05-13T19:59:22.816Z,8.52
2023-05-13T20:04:26.498Z,7.57
2023-05-13T20:09:31.556Z,9.02
2023-05-13T20:14:44.837Z,8.80
2023-05-13T20:19:48.731Z,7.32
2023-05-13T20:24:54.584Z,6.25
2023-05-13T20:30:00.457Z,7.15
2023-05-13T20:35:04.101Z,5.65
2023-05-13T20:40:11.481Z,5.78
2023-05-13T20:45:15.562Z,6.05
2023-05-13T20:50:19.231Z,6.35
2023-05-13T20:55:24.560Z,5.82
2023-05-13T21:00:28.039Z,6.60
2023-05-13T21:05:31.978Z,6.80
2023-05-13T21:10:37.039Z,8.95
2023-05-13T21:15:40.777Z,9.63
2023-05-13T21:20:46.386Z,10.20
2023-05-13T21:25:51.488Z,8.93
2023-05-13T21:30:55.173Z,7.90
2023-05-13T21:35:58.775Z,6.43
2023-05-13T21:41:03.817Z,6.93
2023-05-13T21:46:07.574Z,9.07
2023-05-13T21:51:11.097Z,9.23
2023-05-13T21:56:15.953Z,8.27
2023-05-13T22:01:19.789Z,7.18
2023-05-13T22:06:23.174Z,5.85
2023-05-13T22:11:28.055Z,5.95
2023-05-13T22:16:31.568Z,5.50
2023-05-13T22:21:36.090Z,7.00
2023-05-13T22:26:42.288Z,7.60
2023-05-13T22:31:45.897Z,6.93
2023-05-13T22:36:49.413Z,6.15
2023-05-13T22:41:55.088Z,6.03
2023-05-13T22:46:58.657Z,5.65
2023-05-13T22:52:02.574Z,6.43
2023-05-13T22:57:07.625Z,6.07
2023-05-13T23:02:11.164Z,5.60
2023-05-13T23:07:14.789Z,5.10
2023-05-13T23:12:19.897Z,5.18
2023-05-13T23:17:23.278Z,4.10
2023-05-13T23:22:26.921Z,4.55
2023-05-13T23:27:31.987Z,4.57
2023-05-13T23:32:35.776Z,4.20
2023-05-13T23:37:39.305Z,4.15
2023-05-13T23:42:44.392Z,4.50
2023-05-13T23:47:47.986Z,4.05
2023-05-13T23:52:51.696Z,4.20
2023-05-13T23:57:56.801Z,4.00
